createdAt,value
2016-09-30T00:00:07.191Z,78.44
2016-09-30T00:01:07.212Z,77.95
2016-09-30T00:02:07.259Z,78.15
2016-09-30T00:03:07.269Z,78.34
2016-09-30T00:04:07.392Z,78.44
2016-09-30T00:05:07.312Z,78.34
2016-09-30T00:06:07.344Z,78.34
2016-09-30T00:07:07.369Z,78.88
2016-09-30T00:08:07.393Z,78.88
2016-09-30T00:09:07.419Z,78.63
2016-09-30T00:10:07.945Z,78.4
2016-09-30T00:11:07.470Z,78.59
2016-09-30T00:12:07.493Z,78.69
2016-09-30T00:13:07.513Z,77.73
2016-09-30T00:14:07.539Z,78.11
2016-09-30T00:15:07.571Z,78.05
2016-09-30T00:16:07.592Z,78.15
2016-09-30T00:17:22.539Z,77.63
2016-09-30T00:19:07.664Z,77.67
2016-09-30T00:20:07.689Z,77
2016-09-30T00:21:07.714Z,77.06
2016-09-30T00:22:07.740Z,77.06
2016-09-30T00:24:07.795Z,76.96
2016-09-30T00:25:07.819Z,77.34
2016-09-30T00:26:07.844Z,76.96
2016-09-30T00:27:07.866Z,77.73
2016-09-30T00:28:07.891Z,78.49
2016-09-30T00:29:07.913Z,78.27
2016-09-30T00:31:07.966Z,79.41
2016-09-30T00:32:07.991Z,78.84
2016-09-30T00:33:22.938Z,79.16
2016-09-30T00:34:08.046Z,78.88
2016-09-30T00:35:08.064Z,79.26
2016-09-30T00:36:08.093Z,78.97
2016-09-30T00:37:08.118Z,79.89
2016-09-30T00:38:08.143Z,80.37
2016-09-30T00:39:08.163Z,80.37
2016-09-30T00:40:08.237Z,80.47
2016-09-30T00:41:08.217Z,80.76
2016-09-30T00:42:08.241Z,81.52
2016-09-30T00:43:08.265Z,81.52
2016-09-30T00:44:08.292Z,81.04
2016-09-30T00:45:08.313Z,80.66
2016-09-30T00:46:08.336Z,80.94
2016-09-30T00:47:08.414Z,80.47
2016-09-30T00:48:08.387Z,80.76
2016-09-30T00:49:23.337Z,80.37
2016-09-30T00:51:08.466Z,80.51
2016-09-30T00:52:08.487Z,80.03
2016-09-30T00:53:08.509Z,80.03
2016-09-30T00:54:08.537Z,80.12
2016-09-30T00:55:08.559Z,80.99
2016-09-30T00:56:08.589Z,80.89
2016-09-30T00:57:08.613Z,81.62
2016-09-30T00:58:08.637Z,81.81
2016-09-30T00:59:08.658Z,81.9
2016-09-30T01:00:08.685Z,82
2016-09-30T01:01:08.710Z,82.86
2016-09-30T01:02:08.738Z,82.19
2016-09-30T01:03:08.760Z,82.48
2016-09-30T01:04:08.788Z,82.48
2016-09-30T01:05:23.731Z,82.86
2016-09-30T01:06:08.835Z,82.57
2016-09-30T01:07:08.857Z,82.38
2016-09-30T01:08:08.883Z,82
2016-09-30T01:09:08.908Z,81.71
2016-09-30T01:10:08.929Z,81.62
2016-09-30T01:11:08.959Z,81.62
2016-09-30T01:12:08.981Z,81.66
2016-09-30T01:13:09.008Z,81.56
2016-09-30T01:15:09.058Z,80.79
2016-09-30T01:16:09.084Z,81.08
2016-09-30T01:17:09.108Z,80.7
2016-09-30T01:18:09.138Z,81.18
2016-09-30T01:19:09.156Z,80.41
2016-09-30T01:20:24.103Z,80.99
2016-09-30T01:21:09.508Z,80.7
2016-09-30T01:22:09.230Z,80.7
2016-09-30T01:23:09.254Z,80.12
2016-09-30T01:24:09.284Z,80.41
2016-09-30T01:25:09.308Z,79.83
2016-09-30T01:26:09.581Z,80.12
2016-09-30T01:27:09.358Z,80.03
2016-09-30T01:28:09.383Z,80.41
2016-09-30T01:29:09.406Z,80.32
2016-09-30T01:30:09.432Z,81.18
2016-09-30T01:31:09.452Z,81.18
2016-09-30T01:32:09.731Z,81.62
2016-09-30T01:33:09.505Z,81.52
2016-09-30T01:34:09.528Z,81.66
2016-09-30T01:35:09.549Z,80.22
2016-09-30T01:36:09.579Z,80.12
2016-09-30T01:37:09.604Z,80.99
2016-09-30T01:38:09.628Z,80.51
2016-09-30T01:39:09.659Z,80.22
2016-09-30T01:40:09.675Z,80.12
2016-09-30T01:41:09.700Z,80.6
2016-09-30T01:42:09.726Z,80.32
2016-09-30T01:43:09.752Z,80.41
2016-09-30T01:44:09.828Z,80.32
2016-09-30T01:45:09.803Z,80.41
2016-09-30T01:46:09.879Z,80.47
2016-09-30T01:47:09.847Z,80.47
2016-09-30T01:48:09.873Z,80.27
2016-09-30T01:50:09.923Z,79.93
2016-09-30T01:51:09.948Z,80.12
2016-09-30T01:52:24.896Z,79.64
2016-09-30T01:53:10.000Z,79.64
2016-09-30T01:54:10.023Z,80.12
2016-09-30T01:55:10.050Z,79.36
2016-09-30T01:56:10.075Z,79.64
2016-09-30T01:57:10.095Z,79.74
2016-09-30T01:58:10.122Z,79.93
2016-09-30T01:59:10.151Z,79.83
2016-09-30T02:00:10.172Z,78.97
2016-09-30T02:01:10.198Z,79.36
2016-09-30T02:02:10.227Z,79.36
2016-09-30T02:03:10.245Z,78.88
2016-09-30T02:05:10.300Z,79.07
2016-09-30T02:06:10.321Z,78.78
2016-09-30T02:07:10.347Z,78.97
2016-09-30T02:08:25.346Z,78.97
2016-09-30T02:09:10.447Z,79.07
2016-09-30T02:10:10.419Z,79.16
2016-09-30T02:11:10.448Z,78.78
2016-09-30T02:12:10.471Z,79.16
2016-09-30T02:13:10.498Z,78.97
2016-09-30T02:14:10.518Z,79.07
2016-09-30T02:15:10.547Z,79.16
2016-09-30T02:16:10.573Z,78.78
2016-09-30T02:17:10.596Z,79.64
2016-09-30T02:18:10.615Z,78.3
2016-09-30T02:19:10.641Z,78.4
2016-09-30T02:20:10.674Z,78.2
2016-09-30T02:22:10.717Z,78.3
2016-09-30T02:23:10.749Z,77.73
2016-09-30T02:24:25.692Z,78.4
2016-09-30T02:25:10.796Z,78.4
2016-09-30T02:26:10.816Z,78.11
2016-09-30T02:27:10.842Z,77.82
2016-09-30T02:28:10.871Z,77.92
2016-09-30T02:29:10.893Z,77.53
2016-09-30T02:30:10.916Z,77.53
2016-09-30T02:31:10.941Z,76.96
2016-09-30T02:32:10.964Z,77.15
2016-09-30T02:33:11.289Z,77.44
2016-09-30T02:34:11.014Z,76.77
2016-09-30T02:35:11.037Z,76.62
2016-09-30T02:37:11.092Z,77.25
2016-09-30T02:38:11.168Z,76.67
2016-09-30T02:39:11.141Z,76.96
2016-09-30T02:40:26.087Z,76.86
2016-09-30T02:41:11.191Z,76.48
2016-09-30T02:42:11.221Z,76
2016-09-30T02:43:11.236Z,76.71
2016-09-30T02:44:11.264Z,76.77
2016-09-30T02:45:11.288Z,75.81
2016-09-30T02:46:11.317Z,75.56
2016-09-30T02:47:11.586Z,76.19
2016-09-30T02:48:11.367Z,75.75
2016-09-30T02:49:11.384Z,76.48
2016-09-30T02:50:11.413Z,75.56
2016-09-30T02:51:11.434Z,76.19
2016-09-30T02:52:11.460Z,75.52
2016-09-30T02:53:11.486Z,74.95
2016-09-30T02:55:26.462Z,75.95
2016-09-30T02:56:11.572Z,74.85
2016-09-30T02:57:11.583Z,74.76
2016-09-30T02:58:11.612Z,75.18
2016-09-30T02:59:11.632Z,75.08
2016-09-30T03:00:11.661Z,75.27
2016-09-30T03:01:11.685Z,74.98
2016-09-30T03:02:11.709Z,74.41
2016-09-30T03:03:11.734Z,74.51
2016-09-30T03:04:11.758Z,74.79
2016-09-30T03:05:11.785Z,74.6
2016-09-30T03:06:12.056Z,74.51
2016-09-30T03:07:11.831Z,74.22
2016-09-30T03:08:11.856Z,73.93
2016-09-30T03:10:11.913Z,73.83
2016-09-30T03:11:11.937Z,73.83
2016-09-30T03:12:11.958Z,73.83
2016-09-30T03:13:11.982Z,73.65
2016-09-30T03:14:12.007Z,73.93
2016-09-30T03:15:12.030Z,73.35
2016-09-30T03:16:12.116Z,73.35
2016-09-30T03:17:12.082Z,73.16
2016-09-30T03:18:12.106Z,73.16
2016-09-30T03:19:12.132Z,73.26
2016-09-30T03:20:12.161Z,73.35
2016-09-30T03:21:12.182Z,73.16
2016-09-30T03:22:12.203Z,73.35
2016-09-30T03:23:12.230Z,73.93
2016-09-30T03:24:12.504Z,74.22
2016-09-30T03:25:12.278Z,73.07
2016-09-30T03:26:12.305Z,73.35
2016-09-30T03:27:27.253Z,73.74
2016-09-30T03:28:12.356Z,73.74
2016-09-30T03:29:12.379Z,73.55
2016-09-30T03:30:12.403Z,73.07
2016-09-30T03:31:12.429Z,73.55
2016-09-30T03:32:12.464Z,73.26
2016-09-30T03:33:12.477Z,73.26
2016-09-30T03:34:12.505Z,73.16
2016-09-30T03:35:12.530Z,73.26
2016-09-30T03:36:12.551Z,73.26
2016-09-30T03:37:12.577Z,73.16
2016-09-30T03:38:12.600Z,73.65
2016-09-30T03:39:12.627Z,73.26
2016-09-30T03:40:12.653Z,72.39
2016-09-30T03:41:12.677Z,72.97
2016-09-30T03:42:12.698Z,72.88
2016-09-30T03:43:27.648Z,73.35
2016-09-30T03:44:12.800Z,73.26
2016-09-30T03:45:12.776Z,73.07
2016-09-30T03:46:12.800Z,73.16
2016-09-30T03:47:12.821Z,72.78
2016-09-30T03:48:12.853Z,72.59
2016-09-30T03:49:12.874Z,73.07
2016-09-30T03:50:12.895Z,73.35
2016-09-30T03:51:12.925Z,73.35
2016-09-30T03:52:12.948Z,72.59
2016-09-30T03:53:12.969Z,72.49
2016-09-30T03:54:12.999Z,72.78
2016-09-30T03:55:13.021Z,72.78
2016-09-30T03:56:13.045Z,72.78
2016-09-30T03:57:13.070Z,73.26
2016-09-30T03:58:13.094Z,73.26
2016-09-30T03:59:28.044Z,73.26
2016-09-30T04:00:13.142Z,73.26
2016-09-30T04:01:13.172Z,72.88
2016-09-30T04:02:13.193Z,73.26
2016-09-30T04:03:13.223Z,73.35
2016-09-30T04:04:13.245Z,73.16
2016-09-30T04:05:13.320Z,72.78
2016-09-30T04:06:13.298Z,72.49
2016-09-30T04:07:13.323Z,73.16
2016-09-30T04:08:13.348Z,73.26
2016-09-30T04:09:13.371Z,72.97
2016-09-30T04:10:13.392Z,73.26
2016-09-30T04:11:13.417Z,72.97
2016-09-30T04:13:13.467Z,73.35
2016-09-30T04:14:13.494Z,73.26
2016-09-30T04:15:28.443Z,72.97
2016-09-30T04:16:13.542Z,73.26
2016-09-30T04:17:13.571Z,73.35
2016-09-30T04:18:13.590Z,73.65
2016-09-30T04:19:13.615Z,73.26
2016-09-30T04:20:13.649Z,73.74
2016-09-30T04:21:13.663Z,73.74
2016-09-30T04:22:13.695Z,73.83
2016-09-30T04:23:13.718Z,73.55
2016-09-30T04:24:13.741Z,73.83
2016-09-30T04:25:13.765Z,73.55
2016-09-30T04:26:13.791Z,74.02
2016-09-30T04:27:13.813Z,73.55
2016-09-30T04:28:13.843Z,74.6
2016-09-30T04:29:13.869Z,74.12
2016-09-30T04:30:28.815Z,74.22
2016-09-30T04:31:13.968Z,74.41
2016-09-30T04:32:13.939Z,74.22
2016-09-30T04:33:13.967Z,75.08
2016-09-30T04:34:13.988Z,74.6
2016-09-30T04:35:14.315Z,74.6
2016-09-30T04:36:14.034Z,74.41
2016-09-30T04:37:14.069Z,74.02
2016-09-30T04:38:14.091Z,74.22
2016-09-30T04:39:14.114Z,74.51
2016-09-30T04:40:14.138Z,74.66
2016-09-30T04:41:14.160Z,75.18
2016-09-30T04:42:14.188Z,75.18
2016-09-30T04:43:14.524Z,74.89
2016-09-30T04:44:14.235Z,74.89
2016-09-30T04:45:14.267Z,75.65
2016-09-30T04:46:14.284Z,75.75
2016-09-30T04:47:14.310Z,74.85
2016-09-30T04:48:14.335Z,75.27
2016-09-30T04:49:14.361Z,75.71
2016-09-30T04:50:14.387Z,75.18
2016-09-30T04:51:14.408Z,75.65
2016-09-30T04:53:14.463Z,76.42
2016-09-30T04:54:14.784Z,76.42
2016-09-30T04:55:14.506Z,75.62
2016-09-30T04:56:14.533Z,76.48
2016-09-30T04:57:14.562Z,76.9
2016-09-30T04:58:14.580Z,76.42
2016-09-30T04:59:14.609Z,76.57
2016-09-30T05:00:14.628Z,77.38
2016-09-30T05:01:14.666Z,77.29
2016-09-30T05:02:29.604Z,76.48
2016-09-30T05:03:14.706Z,77.09
2016-09-30T05:04:14.731Z,76.9
2016-09-30T05:05:14.755Z,76.52
2016-09-30T05:06:14.792Z,77.67
2016-09-30T05:07:14.807Z,76.62
2016-09-30T05:08:14.833Z,76.71
2016-09-30T05:09:14.855Z,76.71
2016-09-30T05:10:14.880Z,77
2016-09-30T05:11:15.153Z,76.71
2016-09-30T05:12:14.926Z,77.09
2016-09-30T05:13:14.951Z,77.09
2016-09-30T05:14:14.977Z,77.09
2016-09-30T05:15:15.001Z,77.09
2016-09-30T05:16:15.032Z,77.86
2016-09-30T05:17:15.053Z,77.67
2016-09-30T05:18:30.000Z,77.76
2016-09-30T05:19:15.102Z,77.38
2016-09-30T05:20:15.377Z,77.38
2016-09-30T05:21:15.162Z,78.53
2016-09-30T05:22:15.178Z,77.58
2016-09-30T05:23:15.199Z,77.38
2016-09-30T05:24:15.229Z,77.76
2016-09-30T05:25:15.252Z,77.58
2016-09-30T05:26:15.275Z,77.67
2016-09-30T05:27:15.301Z,77.48
2016-09-30T05:28:15.328Z,77.67
2016-09-30T05:29:15.350Z,77.76
2016-09-30T05:30:15.381Z,78.44
2016-09-30T05:31:15.394Z,77.29
2016-09-30T05:32:15.426Z,77.76
2016-09-30T05:34:30.397Z,77.73
2016-09-30T05:36:15.526Z,77.86
2016-09-30T05:37:15.600Z,77.67
2016-09-30T05:38:15.574Z,78.25
2016-09-30T05:39:15.596Z,78.3
2016-09-30T05:40:15.624Z,78.3
2016-09-30T05:41:15.646Z,78.44
2016-09-30T05:42:15.918Z,78.44
2016-09-30T05:43:15.696Z,77.86
2016-09-30T05:44:15.719Z,78.05
2016-09-30T05:45:15.745Z,78.72
2016-09-30T05:46:15.773Z,78.15
2016-09-30T05:47:15.791Z,78.25
2016-09-30T05:48:15.822Z,78.44
2016-09-30T05:49:15.843Z,78.63
2016-09-30T05:50:30.792Z,78.25
2016-09-30T05:51:15.893Z,78.82
2016-09-30T05:52:15.923Z,78.15
2016-09-30T05:53:15.941Z,78.78
2016-09-30T05:54:15.969Z,78.72
2016-09-30T05:55:15.993Z,78.92
2016-09-30T05:56:16.023Z,78.82
2016-09-30T05:57:16.038Z,78.97
2016-09-30T05:58:16.070Z,78.69
2016-09-30T05:59:16.344Z,78.97
2016-09-30T06:00:16.114Z,78.92
2016-09-30T06:01:16.144Z,79.11
2016-09-30T06:02:16.164Z,79.01
2016-09-30T06:03:16.188Z,79.21
2016-09-30T06:04:16.215Z,78.53
2016-09-30T06:05:31.165Z,78.34
2016-09-30T06:06:16.262Z,78.44
2016-09-30T06:07:16.344Z,78.15
2016-09-30T06:08:16.318Z,78.53
2016-09-30T06:09:16.647Z,78.82
2016-09-30T06:10:16.363Z,78.53
2016-09-30T06:11:16.389Z,78.72
2016-09-30T06:12:16.413Z,78.92
2016-09-30T06:13:16.440Z,78.53
2016-09-30T06:14:16.465Z,78.82
2016-09-30T06:15:16.485Z,78.82
2016-09-30T06:16:16.511Z,79.3
2016-09-30T06:17:16.539Z,78.82
2016-09-30T06:18:16.573Z,78.82
2016-09-30T06:19:16.594Z,79.11
2016-09-30T06:20:16.614Z,78.82
2016-09-30T06:21:16.641Z,79.21
2016-09-30T06:22:16.661Z,79.11
2016-09-30T06:23:16.682Z,79.11
2016-09-30T06:24:16.711Z,79.01
2016-09-30T06:25:16.733Z,79.59
2016-09-30T06:26:16.760Z,79.59
2016-09-30T06:27:16.786Z,79.97
2016-09-30T06:28:16.812Z,80.07
2016-09-30T06:29:16.834Z,80.07
2016-09-30T06:30:16.862Z,80.35
2016-09-30T06:31:16.880Z,80.74
2016-09-30T06:32:16.907Z,80.35
2016-09-30T06:33:16.935Z,80.64
2016-09-30T06:34:16.960Z,80.35
2016-09-30T06:35:16.981Z,79.68
2016-09-30T06:36:17.010Z,80.55
2016-09-30T06:37:31.957Z,80.55
2016-09-30T06:38:17.059Z,80.45
2016-09-30T06:39:17.083Z,81.02
2016-09-30T06:40:17.117Z,81.12
2016-09-30T06:41:17.132Z,81.7
2016-09-30T06:42:17.159Z,81.22
2016-09-30T06:43:17.185Z,80.74
2016-09-30T06:44:17.208Z,80.74
2016-09-30T06:45:17.234Z,80.45
2016-09-30T06:46:17.264Z,80.55
2016-09-30T06:47:17.278Z,80.55
2016-09-30T06:48:17.309Z,80.49
2016-09-30T06:50:17.356Z,80.58
2016-09-30T06:51:17.379Z,80.2
2016-09-30T06:52:17.405Z,80.11
2016-09-30T06:53:32.355Z,79.72
2016-09-30T06:54:17.473Z,79.91
2016-09-30T06:56:17.509Z,79.53
2016-09-30T06:57:17.531Z,79.44
2016-09-30T06:58:17.559Z,79.72
2016-09-30T06:59:17.579Z,78.86
2016-09-30T07:00:17.907Z,79.14
2016-09-30T07:01:17.832Z,78.96
2016-09-30T07:02:17.652Z,78.67
2016-09-30T07:03:17.678Z,78.86
2016-09-30T07:04:17.706Z,78.67
2016-09-30T07:06:17.753Z,78.28
2016-09-30T07:07:18.031Z,78.9
2016-09-30T07:09:32.752Z,78.47
2016-09-30T07:10:17.870Z,78.47
2016-09-30T07:11:17.880Z,78.19
2016-09-30T07:12:17.902Z,78.57
2016-09-30T07:13:17.928Z,78.28
2016-09-30T07:14:17.949Z,78.19
2016-09-30T07:15:17.980Z,78.19
2016-09-30T07:16:18.001Z,78.47
2016-09-30T07:17:18.027Z,78.67
2016-09-30T07:18:18.048Z,78.57
2016-09-30T07:19:18.080Z,78.67
2016-09-30T07:20:18.112Z,78.67
2016-09-30T07:21:18.130Z,78.57
2016-09-30T07:22:18.150Z,78.47
2016-09-30T07:23:18.179Z,78.28
2016-09-30T07:24:18.199Z,78.42
2016-09-30T07:25:33.149Z,77.84
2016-09-30T07:26:18.481Z,76.88
2016-09-30T07:27:18.278Z,77.08
2016-09-30T07:28:18.301Z,76.88
2016-09-30T07:29:18.329Z,76.88
2016-09-30T07:30:18.353Z,76.79
2016-09-30T07:31:18.376Z,76.69
2016-09-30T07:32:18.400Z,76.88
2016-09-30T07:33:18.424Z,77.08
2016-09-30T07:34:18.453Z,77.17
2016-09-30T07:35:18.473Z,77.08
2016-09-30T07:36:18.501Z,77.36
2016-09-30T07:38:18.552Z,77.36
2016-09-30T07:39:18.577Z,77.46
2016-09-30T07:40:33.524Z,77.56
2016-09-30T07:41:18.626Z,78.23
2016-09-30T07:42:18.656Z,78.42
2016-09-30T07:43:18.677Z,79.19
2016-09-30T07:44:18.704Z,79.47
2016-09-30T07:45:18.727Z,80.4
2016-09-30T07:46:18.749Z,81.64
2016-09-30T07:47:18.776Z,81.54
2016-09-30T07:48:18.804Z,81.54
2016-09-30T07:49:18.826Z,81.35
2016-09-30T07:50:18.856Z,81.35
2016-09-30T07:51:18.884Z,81.64
2016-09-30T07:53:18.930Z,81.93
2016-09-30T07:54:18.953Z,83.08
2016-09-30T07:55:18.976Z,83.47
2016-09-30T07:56:19.004Z,83.27
2016-09-30T07:57:19.028Z,82.12
2016-09-30T07:58:19.055Z,82.03
2016-09-30T07:59:19.076Z,82.31
2016-09-30T08:00:19.102Z,83.56
2016-09-30T08:01:19.128Z,82.6
2016-09-30T08:02:19.155Z,83.18
2016-09-30T08:03:19.178Z,83.08
2016-09-30T08:04:19.210Z,83.47
2016-09-30T08:05:19.228Z,81.93
2016-09-30T08:07:19.280Z,82.03
2016-09-30T08:08:19.306Z,82.16
2016-09-30T08:10:19.356Z,81.49
2016-09-30T08:11:19.381Z,81.78
2016-09-30T08:12:34.325Z,81.49
2016-09-30T08:13:19.429Z,81.3
2016-09-30T08:14:19.456Z,81.68
2016-09-30T08:15:19.476Z,81.68
2016-09-30T08:16:19.507Z,81.68
2016-09-30T08:17:19.527Z,81.4
2016-09-30T08:18:19.558Z,81.1
2016-09-30T08:19:19.579Z,81.2
2016-09-30T08:20:19.605Z,80.43
2016-09-30T08:21:19.631Z,80.63
2016-09-30T08:22:19.657Z,80.91
2016-09-30T08:23:19.675Z,80.91
2016-09-30T08:24:20.007Z,80.05
2016-09-30T08:25:19.734Z,80.91
2016-09-30T08:26:19.764Z,79.76
2016-09-30T08:27:19.777Z,79.96
2016-09-30T08:28:34.732Z,79.8
2016-09-30T08:29:19.834Z,79.22
2016-09-30T08:30:19.856Z,79.22
2016-09-30T08:31:19.880Z,78.75
2016-09-30T08:32:19.906Z,78.45
2016-09-30T08:33:20.179Z,76.96
2016-09-30T08:34:19.961Z,77.34
2016-09-30T08:35:19.981Z,76.29
2016-09-30T08:36:20.007Z,75.23
2016-09-30T08:37:20.033Z,75.07
2016-09-30T08:38:20.057Z,75.07
2016-09-30T08:40:20.110Z,74.05
2016-09-30T08:41:20.133Z,72.8
2016-09-30T08:42:20.160Z,72.61
2016-09-30T08:43:20.188Z,72.32
2016-09-30T08:44:35.132Z,73
2016-09-30T08:45:20.342Z,72.32
2016-09-30T08:46:20.262Z,72.13
2016-09-30T08:47:20.290Z,72
2016-09-30T08:48:20.325Z,72.29
2016-09-30T08:49:20.339Z,71.52
2016-09-30T08:50:20.367Z,71.55
2016-09-30T08:51:20.391Z,71.65
2016-09-30T08:52:20.417Z,70.68
2016-09-30T08:53:20.440Z,70.53
2016-09-30T08:54:20.468Z,70.05
2016-09-30T08:55:20.494Z,69.18
2016-09-30T08:56:20.517Z,69.63
2016-09-30T08:57:20.549Z,69.82
2016-09-30T08:58:20.572Z,69.44
2016-09-30T08:59:20.599Z,69.38
2016-09-30T09:00:35.547Z,68.9
2016-09-30T09:01:20.647Z,69.09
2016-09-30T09:02:20.674Z,69.18
2016-09-30T09:03:20.703Z,68.9
2016-09-30T09:04:20.730Z,68.9
2016-09-30T09:05:20.757Z,68.32
2016-09-30T09:06:20.777Z,68.32
2016-09-30T09:07:20.806Z,68.22
2016-09-30T09:08:20.832Z,67.19
2016-09-30T09:09:20.857Z,66.65
2016-09-30T09:10:20.886Z,65.98
2016-09-30T09:11:20.908Z,65.4
2016-09-30T09:12:20.937Z,64.53
2016-09-30T09:13:20.986Z,63.79
2016-09-30T09:14:20.993Z,64.37
2016-09-30T09:15:35.943Z,63.06
2016-09-30T09:16:21.048Z,62.96
2016-09-30T09:17:21.072Z,62.96
2016-09-30T09:18:21.100Z,63.12
2016-09-30T09:19:21.129Z,62.63
2016-09-30T09:20:21.154Z,62.48
2016-09-30T09:21:21.177Z,62.31
2016-09-30T09:22:21.206Z,60.68
2016-09-30T09:23:21.239Z,60.41
2016-09-30T09:24:21.265Z,60.13
2016-09-30T09:25:21.289Z,59.64
2016-09-30T09:26:21.320Z,59.06
2016-09-30T09:27:21.345Z,58.42
2016-09-30T09:28:21.370Z,57.35
2016-09-30T09:29:21.503Z,56.8
2016-09-30T09:30:21.426Z,56.22
2016-09-30T09:31:21.459Z,56.51
2016-09-30T09:33:21.513Z,55.19
2016-09-30T09:34:21.546Z,55.35
2016-09-30T09:35:21.565Z,56.58
2016-09-30T09:36:21.595Z,56.68
2016-09-30T09:37:21.627Z,55.23
2016-09-30T09:38:21.972Z,56.48
2016-09-30T09:39:21.676Z,56.29
2016-09-30T09:40:21.716Z,55.98
2016-09-30T09:41:21.737Z,56.84
2016-09-30T09:42:21.771Z,56.94
2016-09-30T09:43:21.787Z,57.04
2016-09-30T09:44:21.821Z,57.42
2016-09-30T09:45:21.847Z,57.62
2016-09-30T09:46:21.879Z,56.74
2016-09-30T09:47:36.825Z,56.65
2016-09-30T09:48:21.930Z,56.91
2016-09-30T09:49:21.963Z,57.39
2016-09-30T09:50:21.984Z,57.68
2016-09-30T09:51:22.013Z,57.59
2016-09-30T09:52:22.042Z,57.49
2016-09-30T09:53:22.066Z,57.46
2016-09-30T09:54:22.099Z,57.75
2016-09-30T09:55:22.123Z,57.39
2016-09-30T09:56:22.156Z,56.62
2016-09-30T09:57:22.177Z,57.59
2016-09-30T09:58:22.204Z,57.56
2016-09-30T09:59:22.242Z,57.46
2016-09-30T10:00:22.261Z,57.27
2016-09-30T10:01:22.291Z,57.72
2016-09-30T10:02:22.319Z,57.34
2016-09-30T10:03:37.269Z,58.42
2016-09-30T10:04:22.377Z,57.07
2016-09-30T10:05:22.405Z,56.88
2016-09-30T10:06:22.432Z,57.56
2016-09-30T10:07:22.453Z,57.46
2016-09-30T10:08:22.482Z,56.98
2016-09-30T10:09:22.511Z,57.53
2016-09-30T10:10:22.536Z,56.69
2016-09-30T10:11:22.569Z,56.98
2016-09-30T10:12:22.593Z,56.43
2016-09-30T10:13:22.624Z,56.52
2016-09-30T10:15:22.923Z,56.14
2016-09-30T10:17:22.732Z,56.88
2016-09-30T10:18:22.758Z,56.88
2016-09-30T10:19:37.706Z,56.49
2016-09-30T10:20:22.811Z,56.59
2016-09-30T10:21:22.842Z,56.59
2016-09-30T10:22:22.868Z,56.49
2016-09-30T10:23:22.899Z,56.49
2016-09-30T10:24:22.923Z,56.3
2016-09-30T10:25:22.950Z,56.69
2016-09-30T10:26:22.978Z,56.47
2016-09-30T10:27:23.004Z,56.57
2016-09-30T10:28:23.033Z,57.24
2016-09-30T10:29:23.057Z,57.24
2016-09-30T10:30:23.084Z,56.4
2016-09-30T10:31:23.414Z,56.49
2016-09-30T10:32:23.140Z,56.79
2016-09-30T10:33:23.165Z,56.59
2016-09-30T10:34:23.204Z,56.49
2016-09-30T10:35:38.144Z,55.73
2016-09-30T10:36:23.248Z,55.24
2016-09-30T10:37:23.276Z,55.05
2016-09-30T10:38:23.304Z,55.63
2016-09-30T10:39:23.327Z,56.18
2016-09-30T10:40:23.359Z,55.79
2016-09-30T10:41:23.387Z,56.47
2016-09-30T10:42:23.413Z,56.57
2016-09-30T10:43:23.438Z,56.66
2016-09-30T10:44:23.465Z,56.95
2016-09-30T10:45:23.795Z,56.57
2016-09-30T10:46:23.518Z,56.85
2016-09-30T10:48:23.571Z,56.27
2016-09-30T10:49:23.599Z,56.27
2016-09-30T10:50:38.554Z,56.57
2016-09-30T10:51:23.656Z,56.27
2016-09-30T10:52:23.682Z,55.31
2016-09-30T10:53:23.708Z,55.12
2016-09-30T10:54:23.737Z,55.99
2016-09-30T10:55:23.764Z,55.99
2016-09-30T10:56:23.791Z,55.41
2016-09-30T10:57:23.820Z,55.31
2016-09-30T10:58:23.842Z,55.7
2016-09-30T10:59:23.872Z,55.02
2016-09-30T11:00:23.898Z,55.12
2016-09-30T11:01:23.926Z,54.93
2016-09-30T11:02:23.951Z,54.54
2016-09-30T11:03:23.977Z,54.83
2016-09-30T11:04:24.007Z,54.35
2016-09-30T11:05:24.035Z,54.71
2016-09-30T11:06:24.059Z,55.38
2016-09-30T11:07:24.085Z,56.25
2016-09-30T11:08:24.115Z,56.47
2016-09-30T11:09:24.142Z,56.92
2016-09-30T11:10:24.169Z,56.92
2016-09-30T11:11:24.195Z,56.44
2016-09-30T11:12:24.221Z,56.35
2016-09-30T11:13:24.253Z,56.73
2016-09-30T11:14:24.271Z,56.44
2016-09-30T11:15:24.300Z,56.35
2016-09-30T11:16:24.327Z,55.87
2016-09-30T11:17:24.356Z,56.51
2016-09-30T11:18:24.381Z,57.57
2016-09-30T11:20:24.688Z,57.37
2016-09-30T11:21:24.466Z,57.95
2016-09-30T11:22:39.414Z,58.82
2016-09-30T11:23:24.516Z,58.31
2016-09-30T11:24:24.544Z,58.6
2016-09-30T11:25:24.572Z,59.27
2016-09-30T11:26:24.597Z,58.79
2016-09-30T11:27:24.624Z,58.53
2016-09-30T11:28:24.652Z,57.76
2016-09-30T11:29:24.688Z,57.21
2016-09-30T11:30:24.702Z,57.21
2016-09-30T11:31:24.734Z,56.54
2016-09-30T11:32:24.760Z,55.87
2016-09-30T11:33:24.784Z,56.15
2016-09-30T11:35:24.834Z,55.12
2016-09-30T11:38:39.840Z,54.06
2016-09-30T11:39:24.942Z,54.64
2016-09-30T11:40:24.980Z,53.96
2016-09-30T11:41:24.997Z,55.02
2016-09-30T11:42:25.024Z,53.7
2016-09-30T11:43:25.054Z,53.7
2016-09-30T11:44:25.081Z,53.13
2016-09-30T11:45:25.105Z,53.22
2016-09-30T11:46:25.134Z,52.64
2016-09-30T11:47:25.157Z,53.31
2016-09-30T11:48:25.184Z,52.83
2016-09-30T11:50:25.238Z,52.35
2016-09-30T11:51:25.264Z,52.83
2016-09-30T11:52:25.296Z,53.22
2016-09-30T11:53:25.320Z,52.95
2016-09-30T11:54:40.276Z,52.11
2016-09-30T11:55:25.372Z,52.01
2016-09-30T11:56:25.402Z,50.89
2016-09-30T11:57:25.429Z,50.59
2016-09-30T11:58:25.455Z,50.31
2016-09-30T11:59:25.481Z,49.44
2016-09-30T12:00:25.509Z,49.63
2016-09-30T12:01:25.538Z,50.31
2016-09-30T12:02:25.570Z,50.31
2016-09-30T12:03:25.595Z,49.92
2016-09-30T12:04:25.618Z,50.01
2016-09-30T12:05:25.662Z,50.21
2016-09-30T12:06:25.676Z,49.07
2016-09-30T12:07:25.709Z,50.11
2016-09-30T12:08:25.732Z,49.55
2016-09-30T12:09:25.759Z,49.07
2016-09-30T12:10:40.706Z,48.69
2016-09-30T12:12:25.836Z,48.97
2016-09-30T12:13:25.868Z,48.69
2016-09-30T12:14:25.890Z,49.37
2016-09-30T12:15:25.923Z,48.79
2016-09-30T12:16:25.947Z,48.69
2016-09-30T12:17:25.973Z,48.97
2016-09-30T12:18:26.008Z,48.79
2016-09-30T12:19:26.029Z,48.79
2016-09-30T12:20:26.057Z,49.07
2016-09-30T12:21:26.082Z,48.79
2016-09-30T12:23:26.143Z,49.27
2016-09-30T12:24:26.166Z,48.69
2016-09-30T12:25:41.120Z,48.39
2016-09-30T12:26:26.221Z,48.49
2016-09-30T12:27:26.255Z,48.59
2016-09-30T12:28:26.277Z,48.59
2016-09-30T12:29:26.304Z,48.39
2016-09-30T12:30:26.586Z,48.3
2016-09-30T12:31:26.359Z,48.21
2016-09-30T12:32:26.388Z,48.01
2016-09-30T12:33:26.418Z,47.33
2016-09-30T12:34:26.444Z,47.63
2016-09-30T12:35:26.468Z,47.55
2016-09-30T12:36:26.841Z,47.26
2016-09-30T12:38:26.551Z,46.9
2016-09-30T12:39:26.578Z,46.32
2016-09-30T12:40:26.616Z,46.39
2016-09-30T12:41:26.637Z,46.78
2016-09-30T12:43:26.689Z,47.81
2016-09-30T12:44:26.718Z,47.63
2016-09-30T12:45:26.747Z,47.72
2016-09-30T12:46:26.777Z,47.81
2016-09-30T12:47:26.803Z,47.53
2016-09-30T12:48:27.631Z,47.45
2016-09-30T12:49:26.864Z,47.26
2016-09-30T12:50:26.886Z,47.94
2016-09-30T12:52:27.199Z,47.72
2016-09-30T12:53:26.967Z,47.91
2016-09-30T12:54:26.997Z,48.47
2016-09-30T12:55:27.023Z,48.79
2016-09-30T12:56:27.054Z,48.49
2016-09-30T12:57:42.005Z,48.3
2016-09-30T12:58:27.109Z,49.15
2016-09-30T12:59:27.140Z,49.82
2016-09-30T13:00:27.158Z,49.53
2016-09-30T13:01:27.198Z,49.82
2016-09-30T13:02:27.219Z,49.73
2016-09-30T13:03:27.245Z,49.46
2016-09-30T13:04:27.269Z,49.63
2016-09-30T13:05:27.299Z,50.11
2016-09-30T13:06:27.329Z,50.21
2016-09-30T13:07:27.356Z,50.21
2016-09-30T13:08:27.382Z,50.11
2016-09-30T13:09:27.411Z,50.21
2016-09-30T13:10:27.437Z,50.31
2016-09-30T13:11:27.463Z,50.4
2016-09-30T13:13:42.444Z,51.05
2016-09-30T13:14:27.552Z,51.05
2016-09-30T13:15:27.579Z,51.15
2016-09-30T13:16:27.623Z,51.63
2016-09-30T13:17:27.635Z,51.44
2016-09-30T13:18:27.659Z,51.82
2016-09-30T13:19:27.688Z,52.11
2016-09-30T13:20:27.720Z,52.5
2016-09-30T13:21:27.741Z,52.21
2016-09-30T13:22:27.774Z,53.37
2016-09-30T13:23:27.796Z,53.08
2016-09-30T13:24:27.934Z,53.34
2016-09-30T13:25:27.857Z,53.25
2016-09-30T13:26:27.878Z,53.92
2016-09-30T13:27:27.905Z,53.73
2016-09-30T13:28:27.932Z,53.73
2016-09-30T13:29:42.881Z,53.53
2016-09-30T13:30:27.986Z,53.15
2016-09-30T13:31:28.008Z,53.83
2016-09-30T13:32:28.041Z,53.73
2016-09-30T13:33:28.067Z,53.34